Time;durP1;ratioP1;P1;durP2;ratioP2;P2;SDS_P1;SDS_P2;PMS_P1;PMS_P2;Temp;Humidity;BMP_temperature;BMP_pressure;BME280_temperature;BME280_humidity;BME280_pressure;Samples;Min_cycle;Max_cycle;Signal;HPM_P1;HPM_P2
2022/10/11 00:01:31;;;;;;;15.00;5.45;;;;;;;16.36;66.92;100868.03;10440966;28;20136;-67
2022/10/11 00:06:32;;;;;;;13.32;5.80;;;;;;;16.28;67.12;100876.34;10445389;28;20059;-66
2022/10/11 00:11:33;;;;;;;10.73;5.50;;;;;;;16.17;67.18;100894.00;10442546;28;20132;-67
2022/10/11 00:16:37;;;;;;;11.85;5.82;;;;;;;16.09;67.31;100905.03;10443990;28;20132;-68
2022/10/11 00:21:38;;;;;;;13.48;5.65;;;;;;;15.99;67.70;100914.34;10440622;28;20462;-68
2022/10/11 00:26:41;;;;;;;13.48;5.13;;;;;;;15.90;67.67;100907.41;10441906;28;20128;-67
2022/10/11 00:31:47;;;;;;;18.70;5.32;;;;;;;15.87;67.80;100913.22;10442562;28;20455;-67
2022/10/11 00:36:48;;;;;;;13.32;6.15;;;;;;;15.81;67.64;100914.00;10440888;28;20067;-65
2022/10/11 00:41:50;;;;;;;13.68;8.38;;;;;;;15.78;67.57;100920.66;10441052;28;20483;-67
2022/10/11 00:47:05;;;;;;;13.80;5.35;;;;;;;15.70;67.64;100919.91;10441273;28;20522;-67
2022/10/11 00:52:30;;;;;;;11.50;4.82;;;;;;;15.53;67.96;100928.31;10439493;28;20045;-65
2022/10/11 00:57:35;;;;;;;10.73;5.32;;;;;;;15.39;68.44;100931.94;10442221;28;20069;-65
2022/10/11 01:02:38;;;;;;;9.70;4.95;;;;;;;15.36;68.35;100946.69;10441735;28;20172;-67
2022/10/11 01:07:41;;;;;;;10.98;4.10;;;;;;;15.32;68.17;100937.28;10441334;28;20124;-67
2022/10/11 01:13:21;;;;;;;6.05;2.55;;;;;;;15.26;67.83;100955.16;10442549;28;20469;-68
2022/10/11 01:18:52;;;;;;;6.97;1.67;;;;;;;15.11;67.73;100959.78;10418784;28;20061;-67
2022/10/11 01:24:31;;;;;;;3.17;0.60;;;;;;;14.90;67.81;100968.69;10436134;28;20045;-67
2022/10/11 01:29:32;;;;;;;2.28;0.50;;;;;;;14.84;67.82;100970.28;10438986;28;20055;-68
2022/10/11 01:34:54;;;;;;;2.33;0.45;;;;;;;14.79;67.25;100974.56;10437452;28;20132;-67
2022/10/11 01:40:18;;;;;;;3.83;0.75;;;;;;;14.70;67.32;100981.13;10440861;28;20084;-69
2022/10/11 01:45:20;;;;;;;5.22;0.38;;;;;;;14.52;67.22;100986.91;10439166;28;20139;-69
2022/10/11 01:50:43;;;;;;;7.53;0.50;;;;;;;14.44;66.72;100977.00;10447585;28;20075;-70
2022/10/11 01:56:09;;;;;;;4.57;0.50;;;;;;;14.35;66.39;100994.34;10451243;28;20096;-69
2022/10/11 02:01:34;;;;;;;3.75;0.40;;;;;;;14.17;66.12;100995.50;10454093;28;21071;-68
2022/10/11 02:06:49;;;;;;;5.43;1.05;;;;;;;13.98;65.74;100999.59;10452261;28;20077;-69
2022/10/11 02:11:57;;;;;;;6.63;0.70;;;;;;;13.86;65.40;100999.19;10452090;28;20051;-68
2022/10/11 02:17:06;;;;;;;5.47;1.15;;;;;;;13.80;64.83;101012.56;10454860;28;20060;-70
2022/10/11 02:22:14;;;;;;;7.15;0.40;;;;;;;13.77;64.41;101012.94;10453482;28;20068;-68
2022/10/11 02:27:17;;;;;;;;;;;;;;;13.66;64.90;101017.75;10437767;28;20160;-69
2022/10/11 02:32:20;;;;;;;7.60;0.50;;;;;;;13.64;63.94;101022.47;10453185;28;19921;-70
2022/10/11 02:37:28;;;;;;;10.10;0.90;;;;;;;13.65;63.56;101026.03;10452159;28;20475;-71
2022/10/11 02:42:38;;;;;;;6.95;0.80;;;;;;;13.55;63.01;101030.81;10453076;28;20043;-70
2022/10/11 02:47:41;;;;;;;7.78;0.43;;;;;;;13.47;63.33;101027.16;10453758;28;20094;-70
2022/10/11 02:52:42;;;;;;;7.20;0.85;;;;;;;13.43;62.98;101027.69;10445494;28;20069;-71
2022/10/11 02:57:45;;;;;;;3.38;0.55;;;;;;;13.37;62.87;101026.53;10449614;28;20159;-71
2022/10/11 03:02:46;;;;;;;4.30;0.57;;;;;;;13.20;62.56;101031.13;10445441;28;20041;-71
2022/10/11 03:07:48;;;;;;;8.70;0.55;;;;;;;13.13;62.53;101026.63;10446243;28;20158;-70
2022/10/11 03:12:49;;;;;;;5.68;1.08;;;;;;;13.13;62.14;101042.81;10441187;28;20131;-71
2022/10/11 03:17:50;;;;;;;7.30;1.80;;;;;;;12.99;62.32;101045.22;10444336;28;20065;-71
2022/10/11 03:22:52;;;;;;;6.03;0.45;;;;;;;13.00;61.68;101048.78;10446394;28;20136;-70
2022/10/11 03:27:53;;;;;;;3.33;0.40;;;;;;;12.87;61.92;101055.59;10445482;28;20136;-71
2022/10/11 03:32:55;;;;;;;5.85;1.05;;;;;;;12.66;62.42;101052.59;10443166;28;20072;-69
2022/10/11 03:37:56;;;;;;;8.25;0.50;;;;;;;12.49;62.41;101063.41;10446124;28;20140;-71
2022/10/11 03:42:58;;;;;;;8.63;0.50;;;;;;;12.41;62.84;101063.44;10445096;28;20045;-72
2022/10/11 03:47:59;;;;;;;8.85;0.95;;;;;;;12.31;62.62;101065.47;10445064;28;20047;-69
2022/10/11 03:53:01;;;;;;;10.43;1.13;;;;;;;12.22;63.06;101058.38;10442772;28;20172;-71
2022/10/11 03:58:02;;;;;;;10.13;1.48;;;;;;;12.19;62.74;101075.75;10443936;28;20136;-70
2022/10/11 04:03:04;;;;;;;6.55;0.40;;;;;;;12.12;62.90;101077.41;10420765;28;20094;-67
2022/10/11 04:08:05;;;;;;;6.45;0.65;;;;;;;12.07;62.79;101082.50;10443222;28;20037;-70
2022/10/11 04:13:12;;;;;;;10.20;0.50;;;;;;;12.03;62.60;101092.75;10443838;28;20071;-71
2022/10/11 04:18:14;;;;;;;9.30;1.38;;;;;;;12.02;63.00;101091.06;10443330;28;20117;-72
2022/10/11 04:23:15;;;;;;;9.50;0.68;;;;;;;12.05;62.81;101095.28;10441996;28;20053;-70
2022/10/11 04:28:16;;;;;;;6.90;1.05;;;;;;;11.97;63.00;101095.28;10426680;28;20546;-70
2022/10/11 04:33:18;;;;;;;7.05;0.63;;;;;;;11.81;63.35;101104.13;10423232;28;20522;-70
2022/10/11 04:38:19;;;;;;;6.93;1.02;;;;;;;11.76;63.44;101104.63;10439834;28;20559;-71
2022/10/11 04:43:21;;;;;;;10.27;0.90;;;;;;;11.73;63.53;101104.97;10423403;28;20484;-68
2022/10/11 04:48:22;;;;;;;4.82;0.55;;;;;;;11.70;63.46;101114.22;10444570;28;20057;-70
2022/10/11 04:53:24;;;;;;;15.73;1.90;;;;;;;11.67;63.25;101128.03;10443678;28;20045;-70
2022/10/11 04:58:27;;;;;;;14.55;0.50;;;;;;;11.70;63.48;101134.91;10442708;28;20144;-71
2022/10/11 05:03:29;;;;;;;5.55;0.77;;;;;;;11.58;63.44;101137.06;10424140;28;20152;-70
2022/10/11 05:08:30;;;;;;;15.25;1.10;;;;;;;11.38;64.22;101139.19;10441675;28;20065;-71
2022/10/11 05:13:33;;;;;;;10.00;0.90;;;;;;;11.38;63.83;101143.72;10442417;28;20065;-70
2022/10/11 05:18:35;;;;;;;12.45;0.88;;;;;;;11.36;64.12;101156.50;10441295;28;20115;-71
2022/10/11 05:23:36;;;;;;;3.63;0.40;;;;;;;11.34;63.74;101163.91;10440745;28;20136;-68
2022/10/11 05:28:38;;;;;;;7.82;1.08;;;;;;;11.11;64.46;101162.59;10437262;28;20116;-70
2022/10/11 05:33:39;;;;;;;12.10;1.45;;;;;;;10.93;65.05;101160.97;10421594;28;20072;-72
2022/10/11 05:38:41;;;;;;;7.00;0.63;;;;;;;10.84;65.25;101169.00;10440482;28;20452;-71
2022/10/11 05:43:45;;;;;;;8.07;0.65;;;;;;;10.87;65.05;101170.50;10460852;28;20371;-68
2022/10/11 05:48:47;;;;;;;12.88;1.20;;;;;;;10.85;64.81;101175.22;10466128;28;20601;-69
2022/10/11 05:53:48;;;;;;;13.65;1.20;;;;;;;10.85;64.98;101180.59;10454230;28;20071;-69
2022/10/11 05:58:50;;;;;;;11.07;0.80;;;;;;;10.87;65.10;101186.66;10453288;28;20628;-69
2022/10/11 06:03:52;;;;;;;4.50;0.70;;;;;;;10.91;65.02;101201.47;10446871;28;20053;-69
2022/10/11 06:08:54;;;;;;;9.23;0.98;;;;;;;10.81;65.12;101209.63;10454502;28;20041;-69
2022/10/11 06:13:59;;;;;;;10.52;0.98;;;;;;;10.73;65.65;101212.28;10447496;28;20395;-69
2022/10/11 06:19:01;;;;;;;8.30;0.68;;;;;;;10.82;65.14;101218.53;10457638;28;20538;-68
2022/10/11 06:24:03;;;;;;;5.25;0.90;;;;;;;10.85;65.15;101229.84;10451428;28;20524;-69
2022/10/11 06:29:04;;;;;;;12.98;0.68;;;;;;;10.94;65.17;101227.22;10451403;28;20079;-69
2022/10/11 06:34:06;;;;;;;7.72;0.80;;;;;;;10.95;65.21;101245.06;10439991;28;20053;-69
2022/10/11 06:39:07;;;;;;;8.20;0.70;;;;;;;11.09;65.18;101249.84;10456129;28;20555;-69
2022/10/11 06:44:12;;;;;;;9.55;0.98;;;;;;;11.26;65.04;101256.22;10459911;28;20049;-68
2022/10/11 06:49:14;;;;;;;15.23;0.95;;;;;;;11.40;65.02;101271.78;10445790;28;20362;-69
2022/10/11 06:54:23;;;;;;;8.32;1.02;;;;;;;11.47;65.11;101280.06;10462250;28;20040;-69
2022/10/11 06:59:24;;;;;;;7.13;0.82;;;;;;;11.52;64.87;101283.13;10457596;28;20407;-69
2022/10/11 07:04:26;;;;;;;7.88;1.27;;;;;;;11.60;65.18;101285.84;10436030;28;20067;-69
2022/10/11 07:09:28;;;;;;;7.78;0.85;;;;;;;11.66;65.09;101292.47;10462913;28;20049;-69
2022/10/11 07:14:29;;;;;;;7.15;0.80;;;;;;;11.66;65.28;101293.28;10464189;28;20044;-69
2022/10/11 07:19:31;;;;;;;7.95;0.68;;;;;;;11.72;65.22;101294.50;10465182;28;20072;-68
2022/10/11 07:24:32;;;;;;;7.82;0.95;;;;;;;11.88;64.73;101296.44;10452336;28;20537;-68
2022/10/11 07:29:33;;;;;;;11.55;0.73;;;;;;;11.99;64.70;101306.97;10429798;28;20049;-68
2022/10/11 07:34:35;;;;;;;8.95;1.70;;;;;;;12.15;64.76;101303.50;10448912;28;20037;-69
2022/10/11 07:39:36;;;;;;;5.22;0.50;;;;;;;12.33;64.85;101303.38;10452097;28;20068;-68
2022/10/11 07:44:38;;;;;;;14.00;1.20;;;;;;;12.45;64.90;101295.84;10432645;28;20148;-68
2022/10/11 07:49:39;;;;;;;7.95;0.70;;;;;;;12.64;64.59;101309.03;10453326;28;20080;-68
2022/10/11 07:54:41;;;;;;;14.80;1.60;;;;;;;12.79;64.77;101302.97;10453766;28;20487;-69
2022/10/11 07:59:42;;;;;;;8.27;0.57;;;;;;;12.94;64.18;101303.16;10475655;28;20037;-68
2022/10/11 08:04:50;;;;;;;6.72;0.50;;;;;;;13.06;64.52;101307.22;10464377;28;20612;-69
2022/10/11 08:09:51;;;;;;;6.70;0.43;;;;;;;13.15;64.38;101314.31;10461073;28;20037;-69
2022/10/11 08:14:54;;;;;;;6.50;1.15;;;;;;;13.33;63.87;101318.69;10457278;28;20045;-69
2022/10/11 08:19:56;;;;;;;11.13;0.57;;;;;;;13.41;63.06;101324.13;10464749;28;20051;-69
2022/10/11 08:24:58;;;;;;;7.63;0.88;;;;;;;13.52;63.36;101323.75;10468148;28;20057;-69
2022/10/11 08:29:59;;;;;;;10.68;0.80;;;;;;;13.66;62.91;101331.16;10461959;28;20044;-69
2022/10/11 08:35:01;;;;;;;7.78;1.13;;;;;;;13.77;62.54;101334.50;10451529;28;20151;-69
2022/10/11 08:40:04;;;;;;;9.85;0.50;;;;;;;13.81;62.45;101330.44;10429341;28;20049;-69
2022/10/11 08:45:09;;;;;;;6.70;0.50;;;;;;;13.91;61.82;101325.69;10453329;28;20033;-69
2022/10/11 08:50:18;;;;;;;14.23;0.60;;;;;;;13.91;61.94;101330.25;10446324;28;20041;-69
2022/10/11 08:55:38;;;;;;;14.68;0.65;;;;;;;14.07;61.39;101325.63;10447724;28;20452;-69
2022/10/11 09:00:40;;;;;;;8.25;1.35;;;;;;;14.21;61.55;101328.59;10456229;28;20041;-69
2022/10/11 09:05:52;;;;;;;8.80;0.50;;;;;;;14.32;60.84;101330.94;10455870;28;20052;-69
2022/10/11 09:11:15;;;;;;;10.90;1.33;;;;;;;14.38;60.94;101330.22;10441096;28;20098;-69
2022/10/11 09:16:19;;;;;;;14.57;1.60;;;;;;;14.41;60.73;101329.84;10466275;28;20099;-69
2022/10/11 09:21:39;;;;;;;8.57;0.60;;;;;;;14.43;60.62;101333.22;10470250;28;20041;-69
2022/10/11 09:26:53;;;;;;;7.10;0.70;;;;;;;14.49;60.41;101334.38;10454634;28;20038;-69
2022/10/11 09:31:55;;;;;;;9.23;1.70;;;;;;;14.57;60.03;101320.00;10471954;28;20041;-69
2022/10/11 09:37:25;;;;;;;14.95;1.30;;;;;;;14.69;60.02;101326.69;10475758;28;20052;-69
2022/10/11 09:42:26;;;;;;;8.02;0.50;;;;;;;14.84;59.80;101327.59;10470145;28;20048;-69
2022/10/11 09:47:31;;;;;;;9.60;0.70;;;;;;;14.82;59.52;101317.97;10470378;28;20053;-69
2022/10/11 09:52:33;;;;;;;8.43;1.13;;;;;;;14.99;59.23;101308.72;10468759;28;20041;-69
2022/10/11 09:57:38;;;;;;;6.43;1.10;;;;;;;15.02;58.75;101305.63;10462288;28;20033;-69
2022/10/11 10:02:46;;;;;;;7.20;0.55;;;;;;;15.11;58.56;101311.00;10464364;28;20114;-69
2022/10/11 10:08:25;;;;;;;6.70;0.52;;;;;;;15.33;58.03;101314.69;10462662;28;20041;-69
2022/10/11 10:13:45;;;;;;;7.30;0.80;;;;;;;15.42;57.77;101310.88;10465563;28;20052;-68
2022/10/11 10:18:51;;;;;;;8.60;0.50;;;;;;;15.55;57.44;101311.06;10451866;28;20128;-68
2022/10/11 10:23:55;;;;;;;6.00;0.50;;;;;;;15.72;57.40;101308.19;10452466;28;20041;-68
2022/10/11 10:29:07;;;;;;;10.45;0.82;;;;;;;15.69;56.90;101312.13;10452672;28;20061;-69
2022/10/11 10:34:14;;;;;;;9.65;0.63;;;;;;;15.80;56.52;101303.56;10473055;28;20108;-68
2022/10/11 10:39:28;;;;;;;5.70;0.57;;;;;;;15.79;56.39;101303.75;10465494;28;20104;-68
2022/10/11 10:44:30;;;;;;;8.68;0.80;;;;;;;15.75;55.97;101302.44;10466456;28;20037;-68
2022/10/11 10:49:31;;;;;;;7.35;0.95;;;;;;;15.89;55.57;101307.00;10453501;28;20372;-69
2022/10/11 10:55:12;;;;;;;7.55;0.60;;;;;;;15.92;55.22;101300.41;10453292;28;20059;-68
2022/10/11 11:00:18;;;;;;;6.35;0.50;;;;;;;15.99;54.84;101301.31;10467440;28;20060;-68
2022/10/11 11:05:33;;;;;;;8.13;0.85;;;;;;;16.20;54.18;101292.41;10463259;28;20064;-69
2022/10/11 11:11:09;;;;;;;7.93;0.63;;;;;;;16.44;54.13;101283.91;10436660;28;20073;-72
2022/10/11 11:16:29;;;;;;;7.22;1.05;;;;;;;16.49;53.81;101285.19;10395234;28;20047;-69
2022/10/11 11:21:46;;;;;;;17.15;1.40;;;;;;;16.60;52.96;101287.41;10444901;28;20076;-69
2022/10/11 11:27:05;;;;;;;8.95;0.68;;;;;;;16.72;52.25;101283.16;10425971;28;20486;-69
2022/10/11 11:32:12;;;;;;;6.68;0.80;;;;;;;16.84;52.23;101273.50;10424016;28;20131;-69
2022/10/11 11:37:32;;;;;;;7.47;1.95;;;;;;;17.00;51.92;101266.09;10443583;28;20044;-70
2022/10/11 11:42:39;;;;;;;2.88;0.30;;;;;;;17.22;50.13;101269.66;10426361;28;20543;-70
2022/10/11 11:47:46;;;;;;;4.47;0.60;;;;;;;17.28;49.92;101259.84;10444151;28;20079;-69
2022/10/11 11:52:52;;;;;;;4.73;0.57;;;;;;;17.43;49.17;101264.13;10443791;28;20061;-70
2022/10/11 11:57:58;;;;;;;3.15;0.50;;;;;;;17.57;48.37;101261.50;10425489;28;20152;-69
2022/10/11 12:03:15;;;;;;;5.05;0.50;;;;;;;17.60;48.09;101252.97;10444493;28;20057;-70
2022/10/11 12:08:26;;;;;;;4.15;0.40;;;;;;;17.90;47.73;101255.47;10424147;28;20540;-69
2022/10/11 12:13:36;;;;;;;5.90;0.70;;;;;;;18.12;46.85;101254.28;10439043;28;20077;-70
2022/10/11 12:18:50;;;;;;;1.75;0.30;;;;;;;18.41;45.57;101241.41;10438527;28;20032;-69
2022/10/11 12:23:54;;;;;;;8.82;0.52;;;;;;;18.95;45.11;101234.97;10442186;28;20064;-69
2022/10/11 12:29:02;;;;;;;5.22;0.30;;;;;;;19.45;44.05;101236.41;10443981;28;20067;-68
2022/10/11 12:34:18;;;;;;;5.47;0.40;;;;;;;19.79;43.15;101213.47;10445413;28;20345;-69
2022/10/11 12:39:19;;;;;;;5.95;0.95;;;;;;;19.74;43.23;101216.00;10448824;28;20067;-69
2022/10/11 12:44:25;;;;;;;4.57;0.25;;;;;;;19.76;41.97;101208.44;10442184;28;20045;-68
2022/10/11 12:49:30;;;;;;;4.80;0.85;;;;;;;19.66;42.25;101197.94;10426908;28;20048;-68
2022/10/11 12:54:53;;;;;;;7.07;0.35;;;;;;;19.98;41.83;101196.19;10446061;28;20042;-68
2022/10/11 13:00:16;;;;;;;1.65;0.30;;;;;;;20.25;40.44;101187.84;10428213;28;20070;-69
2022/10/11 13:05:44;;;;;;;4.22;0.28;;;;;;;20.22;39.84;101191.00;10452088;28;20074;-70
2022/10/11 13:10:52;;;;;;;4.32;0.30;;;;;;;20.32;40.25;101185.03;10448140;28;20101;-69
2022/10/11 13:15:55;;;;;;;4.15;1.02;;;;;;;20.54;39.90;101186.38;10449517;28;21013;-69
2022/10/11 13:20:56;;;;;;;3.67;0.30;;;;;;;20.79;39.11;101185.56;10437873;28;20039;-69
2022/10/11 13:25:59;;;;;;;3.53;0.60;;;;;;;21.02;38.54;101182.22;10430093;28;20110;-70
2022/10/11 13:31:02;;;;;;;4.00;0.38;;;;;;;21.12;38.46;101182.53;10447529;28;20075;-69
2022/10/11 13:36:12;;;;;;;2.50;0.25;;;;;;;21.32;37.61;101185.06;10438470;28;20503;-70
2022/10/11 13:41:14;;;;;;;6.25;0.50;;;;;;;21.28;37.76;101181.09;10420219;28;20079;-69
2022/10/11 13:46:22;;;;;;;4.40;1.02;;;;;;;21.33;37.76;101177.72;10435547;28;20525;-69
2022/10/11 13:51:38;;;;;;;4.43;0.90;;;;;;;21.34;38.10;101168.44;10442247;28;20132;-70
2022/10/11 13:56:50;;;;;;;7.88;0.50;;;;;;;21.25;37.07;101164.31;10445112;28;20128;-70
2022/10/11 14:01:58;;;;;;;5.95;0.30;;;;;;;20.92;36.77;101166.31;10444350;28;20488;-69
2022/10/11 14:07:01;;;;;;;4.75;0.30;;;;;;;20.90;36.22;101168.44;10445785;28;20052;-69
2022/10/11 14:12:24;;;;;;;2.90;0.40;;;;;;;20.58;36.18;101164.91;10424761;28;20085;-69
2022/10/11 14:17:56;;;;;;;2.70;0.50;;;;;;;20.67;36.83;101160.88;10442276;28;20124;-70
2022/10/11 14:22:57;;;;;;;2.17;0.30;;;;;;;20.55;36.47;101154.44;10425296;28;20041;-68
2022/10/11 14:27:59;;;;;;;4.97;0.50;;;;;;;20.39;36.37;101162.09;10442804;28;20107;-70
2022/10/11 14:33:01;;;;;;;4.13;0.70;;;;;;;20.32;37.23;101158.59;10441631;28;20095;-73
2022/10/11 14:38:03;;;;;;;3.22;0.40;;;;;;;20.44;36.78;101153.25;10449472;28;20048;-72
2022/10/11 14:43:04;;;;;;;4.15;0.50;;;;;;;20.33;36.72;101157.53;10444719;28;20061;-73
2022/10/11 14:48:06;;;;;;;3.03;0.40;;;;;;;20.57;36.35;101157.78;10424658;28;20527;-73
2022/10/11 14:53:09;;;;;;;4.78;0.50;;;;;;;20.54;36.01;101155.50;10441942;28;20049;-72
2022/10/11 14:58:12;;;;;;;6.07;0.65;;;;;;;19.92;36.59;101155.25;10436020;28;20048;-73
2022/10/11 15:03:14;;;;;;;3.55;0.40;;;;;;;19.83;36.79;101167.47;10453779;28;20060;-69
2022/10/11 15:08:16;;;;;;;5.57;0.30;;;;;;;19.89;36.98;101155.72;10469967;28;20266;-70
2022/10/11 15:13:18;;;;;;;7.15;0.35;;;;;;;19.80;36.98;101161.41;10475342;28;20041;-70
2022/10/11 15:18:20;;;;;;;3.13;0.30;;;;;;;19.66;37.44;101150.75;10472746;28;20045;-70
2022/10/11 15:23:21;;;;;;;4.35;0.40;;;;;;;19.41;37.48;101148.72;10435369;28;20487;-69
2022/10/11 15:28:29;;;;;;;3.65;0.50;;;;;;;19.33;37.79;101152.56;10456862;28;20040;-71
2022/10/11 15:33:30;;;;;;;5.32;1.40;;;;;;;19.14;37.81;101154.28;10452714;28;20070;-71
2022/10/11 15:38:33;;;;;;;4.50;0.30;;;;;;;19.09;37.84;101150.50;10451644;28;20605;-71
2022/10/11 15:43:34;;;;;;;2.45;0.25;;;;;;;19.04;38.06;101148.41;10436766;28;20045;-72
2022/10/11 15:48:36;;;;;;;6.13;0.98;;;;;;;18.90;38.32;101158.50;10450223;28;20037;-70
2022/10/11 15:53:38;;;;;;;6.10;0.50;;;;;;;18.85;38.49;101154.72;10454696;28;20136;-72
2022/10/11 15:58:40;;;;;;;6.22;0.50;;;;;;;18.71;38.85;101157.44;10452789;28;20065;-72
2022/10/11 16:03:42;;;;;;;6.97;1.08;;;;;;;18.34;39.63;101143.38;10459726;28;20037;-72
2022/10/11 16:08:43;;;;;;;4.35;0.30;;;;;;;18.11;39.97;101146.50;10452828;28;20071;-72
2022/10/11 16:13:45;;;;;;;4.22;0.60;;;;;;;18.06;40.34;101146.25;10446188;28;20272;-71
2022/10/11 16:18:49;;;;;;;3.75;1.85;;;;;;;17.90;40.31;101143.94;10425431;28;20526;-71
2022/10/11 16:23:50;;;;;;;1.88;0.30;;;;;;;17.70;40.97;101152.00;10451887;28;20128;-71
2022/10/11 16:28:52;;;;;;;6.53;0.50;;;;;;;17.57;41.36;101153.59;10428453;28;20071;-71
2022/10/11 16:33:53;;;;;;;2.22;0.40;;;;;;;17.36;41.94;101156.44;10466408;28;20139;-71
2022/10/11 16:38:55;;;;;;;6.40;1.20;;;;;;;17.14;42.31;101156.53;10456937;28;20037;-71
2022/10/11 16:43:56;;;;;;;3.13;0.93;;;;;;;16.98;42.82;101159.53;10448800;28;20073;-70
2022/10/11 16:48:58;;;;;;;8.07;2.22;;;;;;;16.74;42.89;101158.06;10443501;28;20072;-71
2022/10/11 16:53:59;;;;;;;8.13;2.10;;;;;;;16.50;44.00;101156.63;10442758;28;20487;-71
2022/10/11 16:59:01;;;;;;;7.22;3.10;;;;;;;16.26;44.46;101159.53;10441245;28;20055;-73
2022/10/11 17:04:03;;;;;;;8.25;2.08;;;;;;;16.08;44.85;101169.16;10440431;28;20053;-71
2022/10/11 17:09:05;;;;;;;10.80;1.33;;;;;;;15.92;45.33;101167.53;10440257;28;20566;-72
2022/10/11 17:14:07;;;;;;;9.55;1.67;;;;;;;15.67;45.73;101174.06;10438598;28;20128;-71
2022/10/11 17:19:13;;;;;;;8.38;2.10;;;;;;;15.43;46.27;101177.09;10420651;28;20124;-72
2022/10/11 17:24:14;;;;;;;14.65;1.33;;;;;;;15.26;46.64;101180.00;10416972;28;20051;-72
2022/10/11 17:29:16;;;;;;;8.48;1.00;;;;;;;15.16;46.86;101186.69;10438476;28;20033;-71
2022/10/11 17:34:17;;;;;;;6.63;1.05;;;;;;;15.01;47.18;101184.00;10438763;28;20045;-72
2022/10/11 17:39:21;;;;;;;6.75;1.35;;;;;;;14.87;47.68;101178.34;10441783;28;20123;-72
2022/10/11 17:44:22;;;;;;;10.10;3.25;;;;;;;14.70;48.15;101176.81;10440818;28;20060;-72
2022/10/11 17:49:24;;;;;;;12.07;6.10;;;;;;;14.49;48.99;101180.16;10436432;28;20095;-73
2022/10/11 17:54:26;;;;;;;14.95;4.65;;;;;;;14.33;49.20;101181.13;10439246;28;20515;-71
2022/10/11 17:59:29;;;;;;;5.78;1.45;;;;;;;14.16;49.47;101177.72;10441585;28;20131;-73
2022/10/11 18:04:30;;;;;;;10.07;2.80;;;;;;;13.97;50.17;101173.59;10439638;28;20488;-73
2022/10/11 18:09:33;;;;;;;8.52;2.30;;;;;;;13.74;50.44;101186.22;10433026;28;20116;-74
2022/10/11 18:14:35;;;;;;;8.63;1.48;;;;;;;13.51;50.64;101192.41;10439347;28;20083;-72
2022/10/11 18:19:36;;;;;;;10.93;2.45;;;;;;;13.36;51.22;101189.56;10438388;28;20098;-74
2022/10/11 18:24:38;;;;;;;15.98;1.83;;;;;;;13.25;51.37;101192.59;10437871;28;20340;-73
2022/10/11 18:29:39;;;;;;;11.20;3.97;;;;;;;13.16;51.56;101190.97;10441886;28;20072;-74
2022/10/11 18:34:41;;;;;;;19.80;8.55;;;;;;;13.08;51.94;101189.13;10448808;28;20668;-71
2022/10/11 18:39:42;;;;;;;17.42;6.60;;;;;;;13.06;51.99;101186.59;10423133;28;20044;-71
2022/10/11 18:44:44;;;;;;;13.82;4.78;;;;;;;12.98;52.45;101183.06;10448262;28;20157;-72
2022/10/11 18:49:45;;;;;;;17.88;6.32;;;;;;;12.94;52.39;101179.03;10447557;28;20041;-70
2022/10/11 18:54:47;;;;;;;16.08;5.70;;;;;;;12.98;52.50;101180.38;10445143;28;20095;-75
2022/10/11 18:59:48;;;;;;;10.82;4.63;;;;;;;12.87;52.85;101179.72;10444389;28;20037;-71
2022/10/11 19:04:51;;;;;;;9.23;3.72;;;;;;;12.81;53.17;101174.97;10445604;28;20041;-70
2022/10/11 19:09:52;;;;;;;11.57;5.30;;;;;;;12.73;53.51;101177.69;10427310;28;20060;-71
2022/10/11 19:14:54;;;;;;;13.93;6.97;;;;;;;12.68;53.93;101180.06;10445129;28;20098;-74
2022/10/11 19:19:58;;;;;;;17.20;8.05;;;;;;;12.67;53.73;101179.19;10441026;28;20119;-74
2022/10/11 19:24:59;;;;;;;18.85;9.35;;;;;;;12.65;54.08;101177.69;10439839;28;20127;-70
2022/10/11 19:30:00;;;;;;;33.65;13.05;;;;;;;12.63;53.90;101185.09;10442637;28;20143;-72
2022/10/11 19:35:02;;;;;;;22.33;6.80;;;;;;;12.57;53.88;101181.22;10441763;28;20526;-74
2022/10/11 19:40:04;;;;;;;8.68;3.15;;;;;;;12.47;54.50;101178.69;10446392;28;20128;-72
2022/10/11 19:45:06;;;;;;;7.53;2.17;;;;;;;12.39;54.70;101175.16;10442842;28;20133;-73
2022/10/11 19:50:08;;;;;;;8.82;1.50;;;;;;;12.28;55.17;101176.31;10443303;28;20132;-74
2022/10/11 19:55:10;;;;;;;6.72;2.08;;;;;;;12.19;55.30;101169.25;10443081;28;20121;-71
2022/10/11 20:00:12;;;;;;;4.10;2.00;;;;;;;12.10;55.13;101177.31;10444920;28;20064;-73
2022/10/11 20:05:14;;;;;;;5.97;1.42;;;;;;;12.03;55.34;101180.84;10427916;28;20135;-73
2022/10/11 20:10:15;;;;;;;5.75;1.10;;;;;;;11.96;55.67;101185.19;10439828;28;20093;-73
2022/10/11 20:15:17;;;;;;;11.05;2.03;;;;;;;11.86;55.78;101177.22;10429363;28;20096;-73
2022/10/11 20:20:18;;;;;;;8.27;1.30;;;;;;;11.75;56.23;101185.59;10447496;28;20072;-72
2022/10/11 20:25:20;;;;;;;12.60;1.90;;;;;;;11.67;56.23;101184.56;10449485;28;20124;-71
2022/10/11 20:30:21;;;;;;;8.13;1.52;;;;;;;11.57;56.69;101181.19;10452825;28;20095;-74
2022/10/11 20:35:22;;;;;;;9.75;1.65;;;;;;;11.48;57.14;101174.91;10444995;28;20048;-72
2022/10/11 20:40:24;;;;;;;5.15;1.38;;;;;;;11.41;57.08;101175.69;10442967;28;20454;-75
2022/10/11 20:45:25;;;;;;;10.68;2.67;;;;;;;11.31;57.31;101186.59;10442547;28;20128;-74
2022/10/11 20:50:27;;;;;;;8.68;1.95;;;;;;;11.22;57.69;101182.19;10444886;28;20132;-74
2022/10/11 20:55:28;;;;;;;13.40;2.55;;;;;;;11.14;58.03;101182.09;10441791;28;20100;-69
2022/10/11 21:00:30;;;;;;;18.45;6.65;;;;;;;11.06;58.38;101182.94;10460299;28;20075;-70
2022/10/11 21:05:32;;;;;;;12.50;5.57;;;;;;;10.99;58.51;101181.84;10442665;28;20057;-73
2022/10/11 21:10:33;;;;;;;9.05;2.55;;;;;;;10.88;58.59;101180.25;10441350;28;20127;-73
2022/10/11 21:15:34;;;;;;;8.77;1.42;;;;;;;10.81;58.65;101187.28;10443287;28;20136;-74
2022/10/11 21:20:37;;;;;;;9.20;1.95;;;;;;;10.71;59.19;101187.38;10445455;28;20061;-70
2022/10/11 21:25:39;;;;;;;14.45;2.72;;;;;;;10.61;59.06;101184.78;10444118;28;20126;-75
2022/10/11 21:30:40;;;;;;;5.10;1.70;;;;;;;10.55;59.24;101184.56;10442954;28;20124;-73
2022/10/11 21:35:42;;;;;;;4.88;1.77;;;;;;;10.47;59.20;101185.34;10444434;28;20072;-74
2022/10/11 21:40:43;;;;;;;7.93;0.95;;;;;;;10.39;59.64;101180.72;10438561;28;20558;-74
2022/10/11 21:45:44;;;;;;;6.45;1.25;;;;;;;10.31;59.71;101184.19;10406598;28;20040;-74
2022/10/11 21:50:53;;;;;;;13.70;3.85;;;;;;;10.25;60.20;101183.94;10442048;28;20068;-73
2022/10/11 21:55:56;;;;;;;12.98;3.10;;;;;;;10.15;60.47;101175.94;10429904;28;20156;-75
2022/10/11 22:00:57;;;;;;;10.88;1.98;;;;;;;10.11;60.13;101178.09;10446451;28;20144;-74
2022/10/11 22:06:03;;;;;;;7.18;1.88;;;;;;;10.05;60.66;101173.31;10443241;28;20052;-73
2022/10/11 22:11:05;;;;;;;10.38;3.00;;;;;;;9.98;60.44;101179.47;10454570;28;20060;-74
2022/10/11 22:16:09;;;;;;;19.92;3.75;;;;;;;9.87;60.78;101172.44;10448785;28;20468;-77
2022/10/11 22:21:14;;;;;;;4.65;2.70;;;;;;;9.76;60.80;101170.81;10452346;28;20567;-75
2022/10/11 22:26:18;;;;;;;7.07;1.63;;;;;;;9.76;61.38;101173.50;10433468;28;20072;-79
2022/10/11 22:31:21;;;;;;;6.93;1.50;;;;;;;9.77;61.24;101169.81;10425815;28;20060;-72
2022/10/11 22:36:23;;;;;;;6.13;1.17;;;;;;;9.74;61.12;101164.75;10453191;28;20045;-71
2022/10/11 22:41:25;;;;;;;10.65;1.38;;;;;;;9.73;61.36;101155.88;10449844;28;20518;-73
2022/10/11 22:46:27;;;;;;;14.63;3.15;;;;;;;9.71;61.59;101165.88;10454252;28;20087;-73
2022/10/11 22:51:28;;;;;;;8.32;2.17;;;;;;;9.62;61.53;101165.97;10454546;28;20056;-72
2022/10/11 22:56:29;;;;;;;8.20;1.55;;;;;;;9.54;61.40;101158.66;10451570;28;20135;-70
2022/10/11 23:01:31;;;;;;;7.43;2.50;;;;;;;9.54;61.88;101153.28;10472698;28;20044;-71
2022/10/11 23:06:32;;;;;;;9.40;1.70;;;;;;;9.49;62.02;101155.56;10452343;28;20071;-72
2022/10/11 23:11:34;;;;;;;7.85;1.75;;;;;;;9.31;61.86;101153.66;10449230;28;20136;-68
2022/10/11 23:16:35;;;;;;;6.68;2.03;;;;;;;9.17;62.62;101164.88;10448328;28;20451;-71